Time;durP1;ratioP1;P1;durP2;ratioP2;P2;SDS_P1;SDS_P2;PMS_P1;PMS_P2;Temp;Humidity;BMP_temperature;BMP_pressure;BME280_temperature;BME280_humidity;BME280_pressure;Samples;Min_cycle;Max_cycle;Signal;HPM_P1;HPM_P2
2023/06/04 00:00:14;;;;;;;6.17;2.60;;;;;;;18.63;60.42;101524.78;4994743;28;20397;-81
2023/06/04 00:02:39;;;;;;;9.20;2.63;;;;;;;18.49;60.21;101524.75;4992081;28;20424;-81
2023/06/04 00:05:05;;;;;;;3.75;2.22;;;;;;;18.40;59.98;101520.59;4993133;28;20382;-82
2023/06/04 00:07:31;;;;;;;5.75;2.33;;;;;;;18.40;60.13;101520.59;4991692;28;20875;-82
2023/06/04 00:09:56;;;;;;;8.23;2.63;;;;;;;18.46;59.58;101519.78;4994994;28;20417;-84
2023/06/04 00:12:21;;;;;;;5.93;2.50;;;;;;;18.44;59.64;101512.94;4994181;28;20803;-81
2023/06/04 00:14:47;;;;;;;6.60;2.27;;;;;;;18.32;59.60;101515.41;4992502;28;20456;-80
2023/06/04 00:17:12;;;;;;;4.97;2.30;;;;;;;18.24;59.88;101515.56;4993175;28;20472;-80
2023/06/04 00:19:40;;;;;;;6.47;2.50;;;;;;;18.41;59.70;101514.19;4993764;28;20382;-80
2023/06/04 00:22:06;;;;;;;5.13;2.58;;;;;;;18.47;59.37;101517.91;4994014;28;20557;-81
2023/06/04 00:24:31;;;;;;;7.03;2.78;;;;;;;18.54;59.56;101521.44;4994081;28;20472;-81
2023/06/04 00:26:57;;;;;;;7.40;2.58;;;;;;;18.51;59.87;101520.00;4992733;28;20393;-80
2023/06/04 00:29:23;;;;;;;7.00;2.83;;;;;;;18.46;60.11;101522.47;4993952;28;20397;-82
2023/06/04 00:31:48;;;;;;;7.60;2.80;;;;;;;18.46;60.64;101519.78;4975816;28;20723;-81
2023/06/04 00:34:14;;;;;;;11.20;4.13;;;;;;;18.52;61.16;101523.50;4974098;28;20489;-81
2023/06/04 00:36:40;;;;;;;7.93;3.17;;;;;;;18.54;61.44;101522.25;4997556;28;20509;-81
2023/06/04 00:39:06;;;;;;;12.07;3.60;;;;;;;18.57;61.50;101517.53;4992522;28;20483;-81
2023/06/04 00:41:31;;;;;;;8.27;3.23;;;;;;;18.62;61.82;101529.31;4992131;28;20766;-81
2023/06/04 00:43:57;;;;;;;11.63;3.30;;;;;;;18.69;62.03;101519.41;4993625;28;20385;-81
2023/06/04 00:46:26;;;;;;;8.27;3.42;;;;;;;18.81;62.02;101534.94;4975181;28;20398;-82
2023/06/04 00:48:53;;;;;;;12.00;3.50;;;;;;;18.72;62.84;101532.41;4994078;28;20389;-82
2023/06/04 00:51:20;;;;;;;9.25;3.50;;;;;;;18.60;63.51;101535.91;4998378;28;20802;-82
2023/06/04 00:53:45;;;;;;;9.63;3.50;;;;;;;18.40;63.37;101535.84;5001956;28;20400;-82
2023/06/04 00:56:12;;;;;;;6.80;3.30;;;;;;;18.30;63.09;101544.31;5003075;28;20508;-82
2023/06/04 00:58:39;;;;;;;9.57;3.20;;;;;;;18.30;62.00;101542.44;5017188;28;20487;-82
2023/06/04 01:01:08;;;;;;;6.40;3.13;;;;;;;18.28;61.31;101546.38;5006791;28;20385;-81
2023/06/04 01:03:37;;;;;;;7.50;2.80;;;;;;;18.13;61.18;101538.44;5003916;28;20397;-80
2023/06/04 01:06:28;;;;;;;6.07;2.92;;;;;;;18.17;60.94;101544.22;4984417;28;20405;-80
2023/06/04 01:08:56;;;;;;;7.25;2.63;;;;;;;17.99;60.82;101534.88;4997061;28;20378;-82
2023/06/04 01:11:50;;;;;;;5.55;2.50;;;;;;;17.86;61.08;101549.06;5014922;28;20389;-82
2023/06/04 01:14:18;;;;;;;7.93;2.57;;;;;;;17.80;60.73;101543.63;5005998;28;20427;-80
2023/06/04 01:17:15;;;;;;;7.30;2.80;;;;;;;17.72;61.11;101548.13;5028890;28;20407;-81
2023/06/04 01:19:59;;;;;;;5.70;2.60;;;;;;;17.82;60.67;101545.06;5031351;28;20388;-81
2023/06/04 01:22:48;;;;;;;9.05;2.63;;;;;;;17.74;60.81;101558.66;5020316;28;20398;-81
2023/06/04 01:25:26;;;;;;;5.68;2.67;;;;;;;17.68;60.77;101557.59;5017827;28;20413;-81
2023/06/04 01:27:56;;;;;;;6.50;2.40;;;;;;;17.55;60.73;101554.78;5012602;28;20406;-82
2023/06/04 01:30:28;;;;;;;5.77;2.50;;;;;;;17.67;60.73;101560.47;5012328;28;20378;-82
2023/06/04 01:32:56;;;;;;;7.40;2.60;;;;;;;17.56;60.95;101561.81;5019323;28;20388;-81
2023/06/04 01:35:22;;;;;;;8.60;2.47;;;;;;;17.51;60.78;101566.94;5017635;28;20415;-81
2023/06/04 01:37:49;;;;;;;4.80;2.60;;;;;;;17.56;60.59;101562.66;5017491;28;20463;-81
2023/06/04 01:40:15;;;;;;;5.15;2.13;;;;;;;17.48;60.47;101557.41;5017623;28;20399;-81
2023/06/04 01:42:41;;;;;;;7.90;2.53;;;;;;;17.35;60.69;101562.69;5018601;28;20376;-81
2023/06/04 01:45:08;;;;;;;6.13;2.27;;;;;;;17.22;60.61;101562.59;5016589;28;20864;-81
2023/06/04 01:47:34;;;;;;;5.28;2.28;;;;;;;17.30;60.81;101571.31;5016633;28;20372;-82
2023/06/04 01:50:01;;;;;;;7.20;2.40;;;;;;;17.20;60.69;101573.50;5016244;28;20946;-82
2023/06/04 01:52:26;;;;;;;6.35;2.25;;;;;;;17.04;60.52;101579.94;5016463;28;20391;-81
2023/06/04 01:54:54;;;;;;;5.33;2.13;;;;;;;17.02;60.90;101573.97;5015631;28;21288;-81
2023/06/04 01:57:21;;;;;;;6.20;2.30;;;;;;;17.20;60.54;101568.97;5017467;28;20455;-81
2023/06/04 01:59:47;;;;;;;6.28;2.30;;;;;;;17.23;60.46;101573.09;5016255;28;20470;-82
2023/06/04 02:02:14;;;;;;;4.60;2.40;;;;;;;17.29;60.45;101583.06;5016693;28;20520;-81
2023/06/04 02:04:41;;;;;;;9.82;2.45;;;;;;;17.30;60.31;101587.38;5016837;28;20467;-81
2023/06/04 02:07:08;;;;;;;5.07;2.30;;;;;;;17.31;60.15;101585.56;5005404;28;20468;-82
2023/06/04 02:09:34;;;;;;;6.95;2.58;;;;;;;17.24;60.54;101587.34;4997427;28;20538;-81
2023/06/04 02:12:00;;;;;;;6.45;2.42;;;;;;;17.27;60.51;101584.25;5001250;28;20489;-81
2023/06/04 02:14:26;;;;;;;7.53;2.30;;;;;;;17.32;60.05;101581.81;5008462;28;20448;-81
2023/06/04 02:16:53;;;;;;;9.20;3.00;;;;;;;17.32;60.16;101588.03;4992590;28;20437;-81
2023/06/04 02:19:20;;;;;;;5.20;2.40;;;;;;;17.47;59.86;101601.34;4983037;28;20391;-81
2023/06/04 02:21:46;;;;;;;5.78;2.30;;;;;;;17.41;59.57;101594.06;4998051;28;20471;-81
2023/06/04 02:24:12;;;;;;;7.05;2.60;;;;;;;17.43;59.19;101605.44;5006236;28;20841;-80
2023/06/04 02:26:38;;;;;;;8.63;2.53;;;;;;;17.47;59.19;101609.41;5005912;28;20471;-82
2023/06/04 02:29:03;;;;;;;5.57;2.10;;;;;;;17.25;58.95;101621.13;5000165;28;20464;-80
2023/06/04 02:31:29;;;;;;;7.03;2.30;;;;;;;17.19;58.83;101622.75;5022272;28;20404;-82
2023/06/04 02:33:55;;;;;;;6.93;2.17;;;;;;;17.26;58.72;101609.41;5018376;28;20392;-82
2023/06/04 02:36:21;;;;;;;8.20;2.20;;;;;;;17.11;58.64;101622.88;5006862;28;20385;-82
2023/06/04 02:38:46;;;;;;;7.53;2.17;;;;;;;17.19;58.84;101626.25;5001698;28;20386;-81
2023/06/04 02:41:12;;;;;;;9.00;2.60;;;;;;;17.16;58.75;101628.47;4999341;28;20390;-81
2023/06/04 02:43:37;;;;;;;5.45;2.60;;;;;;;17.13;58.81;101629.69;5012006;28;20521;-82
2023/06/04 02:46:02;;;;;;;5.80;2.20;;;;;;;17.18;58.78;101635.31;5009140;28;20391;-83
2023/06/04 02:48:28;;;;;;;5.75;2.40;;;;;;;17.20;58.69;101633.28;5012254;28;20745;-81
2023/06/04 02:50:53;;;;;;;5.57;2.03;;;;;;;16.98;59.02;101647.69;5017932;28;20400;-82
2023/06/04 02:53:20;;;;;;;9.57;2.20;;;;;;;16.97;59.41;101654.06;5002326;28;20392;-82
2023/06/04 02:55:46;;;;;;;4.63;2.10;;;;;;;16.99;59.43;101649.31;5016136;28;20920;-82
2023/06/04 02:58:11;;;;;;;7.23;2.50;;;;;;;16.90;59.60;101663.84;5014681;28;20426;-82
2023/06/04 03:00:37;;;;;;;3.90;2.20;;;;;;;16.83;59.83;101671.81;5004521;28;20397;-81
2023/06/04 03:03:02;;;;;;;6.23;2.30;;;;;;;16.97;59.89;101662.91;5011072;28;20857;-83
2023/06/04 03:05:30;;;;;;;6.07;2.10;;;;;;;16.93;59.97;101668.84;4994934;28;20483;-81
2023/06/04 03:07:57;;;;;;;4.40;1.93;;;;;;;16.94;59.95;101681.19;5014020;28;20853;-82
2023/06/04 03:10:22;;;;;;;6.07;2.00;;;;;;;16.94;59.97;101676.69;4996793;28;20390;-83
2023/06/04 03:12:48;;;;;;;4.22;2.10;;;;;;;16.96;59.84;101682.69;5013042;28;20372;-81
2023/06/04 03:15:13;;;;;;;9.30;2.60;;;;;;;16.77;59.92;101685.91;5013797;28;20388;-82
2023/06/04 03:17:40;;;;;;;3.85;2.22;;;;;;;16.66;59.86;101699.78;5013095;28;20900;-81
2023/06/04 03:20:07;;;;;;;7.50;2.30;;;;;;;16.54;59.71;101694.06;5013096;28;20380;-80
2023/06/04 03:22:34;;;;;;;6.40;2.08;;;;;;;16.39;59.26;101694.06;5002733;28;20385;-81
2023/06/04 03:25:01;;;;;;;3.40;1.90;;;;;;;16.25;59.36;101698.41;4993145;28;20479;-81
2023/06/04 03:27:26;;;;;;;6.35;2.03;;;;;;;16.27;59.54;101685.66;4993332;28;20378;-80
2023/06/04 03:29:52;;;;;;;4.88;2.00;;;;;;;16.30;59.47;101695.19;4991959;28;20392;-81
2023/06/04 03:32:17;;;;;;;6.67;2.10;;;;;;;16.33;59.44;101706.34;4992417;28;20851;-80
2023/06/04 03:34:43;;;;;;;6.60;2.35;;;;;;;16.04;60.28;101704.44;4975862;28;20425;-80
2023/06/04 03:37:09;;;;;;;6.00;2.03;;;;;;;16.11;60.67;101712.59;4999391;28;20503;-80
2023/06/04 03:39:35;;;;;;;4.63;2.10;;;;;;;16.14;60.90;101710.38;4982654;28;20398;-82
2023/06/04 03:42:00;;;;;;;6.10;2.00;;;;;;;16.17;60.73;101707.34;5001072;28;20397;-81
2023/06/04 03:44:26;;;;;;;5.73;2.30;;;;;;;16.09;61.11;101696.72;5011372;28;20380;-80
2023/06/04 03:46:52;;;;;;;6.30;2.20;;;;;;;15.99;61.77;101705.00;5012450;28;20462;-81
2023/06/04 03:49:17;;;;;;;7.43;2.47;;;;;;;16.13;61.61;101705.22;5012470;28;20376;-80
2023/06/04 03:51:43;;;;;;;6.33;2.30;;;;;;;16.07;61.71;101709.44;5012704;28;20522;-81
2023/06/04 03:54:09;;;;;;;6.45;2.28;;;;;;;16.03;61.95;101702.81;5012171;28;20386;-81
2023/06/04 03:56:35;;;;;;;8.02;2.47;;;;;;;16.05;61.72;101698.91;5012014;28;20527;-80
2023/06/04 03:59:01;;;;;;;7.55;2.20;;;;;;;15.97;62.15;101715.06;5011940;28;20403;-81
2023/06/04 04:01:26;;;;;;;5.53;2.40;;;;;;;15.91;62.43;101713.09;4993717;28;20404;-80
2023/06/04 04:03:53;;;;;;;6.23;2.13;;;;;;;15.82;62.75;101716.84;5011668;28;20737;-79
2023/06/04 04:06:20;;;;;;;7.40;2.20;;;;;;;15.94;62.38;101704.72;5010441;28;20844;-80
2023/06/04 04:08:45;;;;;;;7.43;2.17;;;;;;;16.04;62.35;101710.66;5010953;28;20872;-80
2023/06/04 04:11:12;;;;;;;5.53;2.30;;;;;;;15.93;62.90;101718.25;5010207;28;20410;-81
2023/06/04 04:13:37;;;;;;;6.43;2.28;;;;;;;16.00;62.49;101716.53;5010133;28;20461;-81
2023/06/04 04:16:03;;;;;;;9.38;2.63;;;;;;;15.96;62.60;101726.75;5009374;28;20380;-81
2023/06/04 04:18:33;;;;;;;8.20;2.10;;;;;;;16.02;62.49;101714.50;5009740;28;20486;-82
2023/06/04 04:20:58;;;;;;;7.55;2.40;;;;;;;15.97;62.34;101728.44;4991448;28;20400;-82
2023/06/04 04:23:25;;;;;;;4.95;2.10;;;;;;;15.80;62.29;101721.56;5009607;28;20387;-80
2023/06/04 04:25:51;;;;;;;7.93;2.22;;;;;;;15.78;62.33;101732.41;5016245;28;20384;-79
2023/06/04 04:28:17;;;;;;;4.78;2.10;;;;;;;15.87;61.91;101727.84;5014387;28;20386;-81
2023/06/04 04:30:44;;;;;;;7.05;2.20;;;;;;;15.84;61.89;101729.00;5010994;28;20763;-80
2023/06/04 04:33:10;;;;;;;7.43;2.35;;;;;;;15.92;61.65;101737.97;5017547;28;20396;-81
2023/06/04 04:35:36;;;;;;;9.95;2.58;;;;;;;15.92;61.34;101733.50;5011513;28;20392;-80
2023/06/04 04:38:05;;;;;;;5.53;2.13;;;;;;;15.89;61.38;101741.03;5009770;28;20734;-80
2023/06/04 04:40:31;;;;;;;5.18;2.15;;;;;;;15.91;61.42;101734.50;5007573;28;20406;-81
2023/06/04 04:42:57;;;;;;;9.53;2.50;;;;;;;15.88;61.12;101750.88;5010553;28;20479;-81
2023/06/04 04:45:23;;;;;;;5.38;2.20;;;;;;;16.02;61.07;101733.22;5016096;28;20491;-82
2023/06/04 04:47:50;;;;;;;5.50;2.10;;;;;;;15.88;60.95;101736.69;5009260;28;20388;-81
2023/06/04 04:50:16;;;;;;;5.38;2.10;;;;;;;15.85;60.86;101728.03;5009810;28;20403;-82
2023/06/04 04:52:42;;;;;;;6.22;2.13;;;;;;;15.86;60.43;101734.19;5010274;28;20380;-80
2023/06/04 04:55:08;;;;;;;4.47;2.00;;;;;;;15.88;60.16;101724.13;5011201;28;20407;-80
2023/06/04 04:57:34;;;;;;;6.72;2.30;;;;;;;16.10;60.04;101721.59;4990894;28;20492;-81
2023/06/04 04:59:59;;;;;;;10.00;2.40;;;;;;;16.02;59.91;101722.53;5010401;28;20470;-81
2023/06/04 05:02:25;;;;;;;7.07;2.77;;;;;;;15.95;59.93;101735.78;5010997;28;20800;-80
2023/06/04 05:04:50;;;;;;;7.77;2.20;;;;;;;15.86;60.13;101731.50;5011444;28;20412;-80
2023/06/04 05:07:16;;;;;;;7.87;2.30;;;;;;;16.01;60.20;101724.38;4993766;28;20371;-81
2023/06/04 05:09:41;;;;;;;7.00;2.10;;;;;;;16.30;59.66;101738.00;5011011;28;20472;-80
2023/06/04 05:12:07;;;;;;;6.13;2.20;;;;;;;16.23;59.49;101738.72;5012002;28;20380;-81
2023/06/04 05:14:35;;;;;;;5.03;2.00;;;;;;;16.18;59.65;101750.97;5012606;28;20384;-81
2023/06/04 05:17:03;;;;;;;5.03;2.10;;;;;;;16.30;59.60;101746.03;4994102;28;20407;-81
2023/06/04 05:19:28;;;;;;;9.80;2.58;;;;;;;16.30;59.55;101738.81;5011232;28;20384;-80
2023/06/04 05:21:54;;;;;;;5.22;2.22;;;;;;;16.22;59.65;101737.06;5010860;28;20399;-80
2023/06/04 05:24:20;;;;;;;6.27;2.10;;;;;;;16.18;60.00;101742.94;5010888;28;20415;-81
2023/06/04 05:26:48;;;;;;;6.05;2.40;;;;;;;16.19;59.83;101747.28;5010684;28;20877;-80
2023/06/04 05:29:13;;;;;;;6.30;2.42;;;;;;;16.33;59.86;101754.50;5010600;28;21789;-80
2023/06/04 05:31:39;;;;;;;8.60;2.92;;;;;;;16.33;59.92;101749.16;5010861;28;20396;-80
2023/06/04 05:34:05;;;;;;;5.20;2.15;;;;;;;16.41;60.00;101756.28;5002386;28;20403;-81
2023/06/04 05:36:31;;;;;;;7.50;2.40;;;;;;;16.48;60.14;101759.88;4999062;28;20413;-81
2023/06/04 05:38:57;;;;;;;6.57;2.60;;;;;;;16.42;60.39;101752.56;4997102;28;20389;-80
2023/06/04 05:41:27;;;;;;;6.43;2.47;;;;;;;16.52;60.47;101763.00;5007291;28;20459;-80
2023/06/04 05:43:53;;;;;;;6.82;2.95;;;;;;;16.51;60.46;101759.53;4997756;28;20420;-80
2023/06/04 05:46:19;;;;;;;6.18;2.60;;;;;;;16.55;60.25;101755.44;4993998;28;20848;-81
2023/06/04 05:48:45;;;;;;;7.38;2.90;;;;;;;16.71;60.43;101770.50;4991832;28;20389;-81
2023/06/04 05:51:13;;;;;;;5.15;2.53;;;;;;;16.76;60.39;101768.09;4986775;28;20396;-80
2023/06/04 05:53:39;;;;;;;6.55;2.47;;;;;;;16.74;60.37;101771.97;5002941;28;20551;-80
2023/06/04 05:56:05;;;;;;;4.90;2.40;;;;;;;16.75;60.53;101769.09;5012267;28;20519;-81
2023/06/04 05:58:33;;;;;;;6.53;2.53;;;;;;;16.68;60.87;101767.38;5003133;28;20417;-80
2023/06/04 06:00:58;;;;;;;7.40;2.50;;;;;;;16.57;61.32;101774.81;4979212;28;20394;-82
2023/06/04 06:03:24;;;;;;;7.07;2.53;;;;;;;16.62;61.32;101768.94;4995333;28;20485;-80
2023/06/04 06:05:49;;;;;;;7.45;2.53;;;;;;;16.71;61.28;101786.56;5005426;28;20393;-80
2023/06/04 06:08:15;;;;;;;5.30;2.73;;;;;;;16.81;61.12;101783.59;4986055;28;20863;-80
2023/06/04 06:10:40;;;;;;;7.57;2.80;;;;;;;16.82;61.37;101779.91;5000081;28;20400;-84
2023/06/04 06:13:06;;;;;;;10.83;3.03;;;;;;;16.98;61.48;101781.59;5002156;28;20407;-81
2023/06/04 06:15:32;;;;;;;6.95;2.80;;;;;;;17.05;61.69;101781.69;4982454;28;20398;-77
2023/06/04 06:17:58;;;;;;;6.30;2.72;;;;;;;17.27;61.20;101794.13;4994791;28;20417;-77
2023/06/04 06:20:23;;;;;;;5.67;2.63;;;;;;;17.23;61.20;101787.47;4989254;28;20387;-85
2023/06/04 06:22:49;;;;;;;7.72;2.60;;;;;;;17.35;61.14;101796.69;4989666;28;20460;-85
2023/06/04 06:25:15;;;;;;;7.40;2.50;;;;;;;17.48;61.17;101798.69;4990994;28;20400;-84
2023/06/04 06:27:42;;;;;;;6.68;2.58;;;;;;;17.58;60.59;101788.47;5003981;28;20388;-85
2023/06/04 06:30:08;;;;;;;5.80;2.45;;;;;;;17.46;60.93;101797.22;5002223;28;20787;-85
2023/06/04 06:32:34;;;;;;;7.13;2.80;;;;;;;17.54;60.65;101789.91;4996784;28;20506;-79
2023/06/04 06:35:00;;;;;;;12.20;2.83;;;;;;;17.39;60.43;101794.44;4993320;28;20505;-81
2023/06/04 06:37:26;;;;;;;9.80;2.60;;;;;;;17.31;60.23;101795.41;4994951;28;20974;-80
2023/06/04 06:39:51;;;;;;;8.07;2.47;;;;;;;17.13;60.39;101798.47;5000843;28;20398;-80
2023/06/04 06:42:18;;;;;;;8.37;2.70;;;;;;;17.09;60.35;101801.75;4986885;28;20777;-81
2023/06/04 06:44:46;;;;;;;5.60;2.35;;;;;;;17.20;60.38;101801.25;4995154;28;20403;-79
2023/06/04 06:47:15;;;;;;;8.45;2.75;;;;;;;17.16;60.42;101798.13;5005550;28;20388;-80
2023/06/04 06:49:41;;;;;;;3.72;2.20;;;;;;;17.25;60.38;101798.00;5011364;28;20482;-81
2023/06/04 06:52:06;;;;;;;5.45;2.70;;;;;;;17.14;60.51;101805.50;5010910;28;20768;-79
2023/06/04 06:54:32;;;;;;;6.10;2.37;;;;;;;17.03;60.86;101805.16;4994224;28;20388;-81
2023/06/04 06:56:57;;;;;;;8.30;2.70;;;;;;;17.15;60.39;101809.00;5012207;28;20482;-80
2023/06/04 06:59:24;;;;;;;7.97;2.65;;;;;;;17.16;60.46;101810.66;5012780;28;20395;-79
2023/06/04 07:01:49;;;;;;;5.78;2.25;;;;;;;17.19;60.25;101819.16;5013291;28;20416;-79
2023/06/04 07:04:15;;;;;;;5.43;2.47;;;;;;;17.04;60.35;101815.69;5011010;28;20851;-79
2023/06/04 07:06:41;;;;;;;6.30;2.55;;;;;;;17.24;60.19;101818.59;5011887;28;20889;-81
2023/06/04 07:09:08;;;;;;;6.45;2.65;;;;;;;17.27;60.01;101814.72;5011331;28;20449;-80
2023/06/04 07:11:33;;;;;;;8.15;2.40;;;;;;;17.16;60.27;101814.19;4994051;28;20412;-81
2023/06/04 07:14:01;;;;;;;6.57;2.60;;;;;;;17.34;60.09;101823.66;5011091;28;20416;-79
2023/06/04 07:16:27;;;;;;;5.32;2.03;;;;;;;17.40;59.85;101833.66;5011569;28;20400;-78
2023/06/04 07:18:52;;;;;;;8.40;2.60;;;;;;;17.33;60.03;101830.88;5011649;28;20897;-80
2023/06/04 07:21:20;;;;;;;5.05;2.30;;;;;;;17.22;60.09;101833.22;5012750;28;20380;-80
2023/06/04 07:23:49;;;;;;;5.37;2.40;;;;;;;17.16;60.15;101832.94;4995111;28;20380;-80
2023/06/04 07:26:15;;;;;;;6.60;2.55;;;;;;;17.18;59.79;101838.13;5012891;28;20887;-81
2023/06/04 07:28:40;;;;;;;5.40;2.40;;;;;;;17.34;59.45;101835.25;5012858;28;20380;-80
2023/06/04 07:31:06;;;;;;;7.45;2.35;;;;;;;17.29;59.15;101840.31;5011823;28;20395;-80
2023/06/04 07:33:31;;;;;;;8.57;2.50;;;;;;;17.23;59.23;101833.00;5011964;28;20384;-81
2023/06/04 07:35:57;;;;;;;4.45;1.98;;;;;;;17.43;58.63;101852.06;5012168;28;20399;-81
2023/06/04 07:38:22;;;;;;;9.30;2.53;;;;;;;17.43;58.24;101849.38;5011893;28;20404;-82
2023/06/04 07:40:48;;;;;;;7.15;2.30;;;;;;;17.36;57.99;101854.63;5012393;28;20391;-81
2023/06/04 07:43:13;;;;;;;7.80;2.50;;;;;;;17.47;57.35;101852.50;4994599;28;20384;-80
2023/06/04 07:45:39;;;;;;;6.53;2.20;;;;;;;17.59;57.57;101864.38;5011989;28;20395;-80
2023/06/04 07:48:05;;;;;;;9.77;2.70;;;;;;;17.52;57.24;101858.97;4995192;28;20388;-81
2023/06/04 07:50:30;;;;;;;8.38;2.30;;;;;;;17.58;57.42;101862.75;5012107;28;20521;-80
2023/06/04 07:52:55;;;;;;;7.63;2.20;;;;;;;17.68;57.14;101867.78;5012469;28;20376;-79
2023/06/04 07:55:22;;;;;;;8.17;2.20;;;;;;;17.62;57.13;101865.88;4995064;28;20408;-81
2023/06/04 07:57:47;;;;;;;9.35;2.30;;;;;;;17.61;57.10;101864.19;5012341;28;20424;-81
2023/06/04 08:00:14;;;;;;;6.78;2.13;;;;;;;17.60;56.82;101871.41;5011938;28;20383;-80
2023/06/04 08:02:39;;;;;;;9.17;2.40;;;;;;;17.64;56.66;101863.81;4989528;28;20417;-80
2023/06/04 08:05:05;;;;;;;5.83;2.40;;;;;;;17.79;56.65;101872.69;4992252;28;20485;-80
2023/06/04 08:07:31;;;;;;;8.77;2.53;;;;;;;17.85;56.53;101876.44;4974576;28;20481;-80
2023/06/04 08:09:56;;;;;;;7.13;2.17;;;;;;;17.54;56.26;101872.19;4991999;28;20394;-80
2023/06/04 08:12:22;;;;;;;6.38;2.10;;;;;;;17.53;56.58;101874.00;4993316;28;20374;-81
2023/06/04 08:14:50;;;;;;;6.33;2.20;;;;;;;17.57;56.29;101878.00;4976303;28;20717;-81
2023/06/04 08:17:15;;;;;;;5.57;2.08;;;;;;;17.53;56.30;101883.91;4991984;28;20409;-80
2023/06/04 08:19:41;;;;;;;6.85;2.35;;;;;;;17.74;56.33;101881.28;4991148;28;20388;-80
2023/06/04 08:22:06;;;;;;;5.80;2.10;;;;;;;17.86;56.07;101884.34;4991761;28;20425;-80
2023/06/04 08:24:32;;;;;;;4.78;2.08;;;;;;;17.66;56.22;101899.31;4974759;28;20414;-79
2023/06/04 08:26:57;;;;;;;8.83;2.40;;;;;;;17.74;55.89;101892.00;4992180;28;20691;-79
2023/06/04 08:29:23;;;;;;;6.80;2.00;;;;;;;17.69;55.97;101902.47;4991899;28;20392;-81
2023/06/04 08:31:48;;;;;;;8.37;2.50;;;;;;;17.70;55.90;101906.81;4995342;28;20942;-80
2023/06/04 08:34:14;;;;;;;9.18;2.33;;;;;;;17.55;56.00;101900.63;4993425;28;20377;-81
2023/06/04 08:36:40;;;;;;;7.23;2.30;;;;;;;17.51;56.35;101910.09;4991536;28;20409;-79
2023/06/04 08:39:06;;;;;;;5.57;2.00;;;;;;;17.60;56.46;101908.97;4992116;28;20377;-81
2023/06/04 08:41:43;;;;;;;5.83;2.13;;;;;;;17.64;56.28;101914.78;4992260;28;20381;-81
2023/06/04 08:44:10;;;;;;;7.95;2.30;;;;;;;17.73;56.10;101914.47;4991936;28;20378;-82
2023/06/04 08:46:39;;;;;;;7.28;2.33;;;;;;;17.69;56.59;101909.69;4991946;28;20382;-80
2023/06/04 08:49:07;;;;;;;7.05;2.28;;;;;;;17.66;56.62;101910.06;4992334;28;20396;-79
2023/06/04 08:51:36;;;;;;;5.10;2.30;;;;;;;17.79;57.09;101910.22;4991756;28;20382;-80
2023/06/04 08:54:04;;;;;;;7.53;2.60;;;;;;;17.70;57.29;101924.75;4991776;28;20732;-79
2023/06/04 08:56:32;;;;;;;7.65;2.90;;;;;;;17.45;57.13;101917.03;5006192;28;20412;-80
2023/06/04 08:59:04;;;;;;;11.02;2.85;;;;;;;17.31;57.41;101915.19;5010539;28;20403;-80
2023/06/04 09:01:32;;;;;;;10.52;2.58;;;;;;;17.44;57.29;101912.66;5011253;28;20390;-79
2023/06/04 09:04:01;;;;;;;6.82;2.17;;;;;;;17.57;56.47;101912.00;5011450;28;20470;-80
2023/06/04 09:06:26;;;;;;;5.60;1.92;;;;;;;17.63;56.17;101915.78;5011804;28;20388;-81
2023/06/04 09:08:57;;;;;;;6.33;2.10;;;;;;;17.74;56.00;101921.50;5011766;28;20471;-79
2023/06/04 09:11:26;;;;;;;3.85;1.75;;;;;;;17.80;55.89;101921.78;5014687;28;20446;-80
2023/06/04 09:13:53;;;;;;;7.27;2.13;;;;;;;17.78;56.02;101916.59;5014627;28;20403;-81
2023/06/04 09:16:19;;;;;;;8.07;2.72;;;;;;;17.68;56.58;101924.09;5016424;28;20460;-81
2023/06/04 09:18:45;;;;;;;8.52;2.40;;;;;;;17.62;57.01;101908.78;5016457;28;20407;-81
2023/06/04 09:21:10;;;;;;;9.02;3.03;;;;;;;17.88;56.71;101919.84;5016084;28;21439;-81
2023/06/04 09:23:48;;;;;;;6.90;2.73;;;;;;;17.94;56.59;101921.75;5016286;28;20384;-80
2023/06/04 09:26:14;;;;;;;6.95;2.35;;;;;;;17.91;56.07;101937.41;4998720;28;20405;-81
2023/06/04 09:28:41;;;;;;;8.02;2.47;;;;;;;17.66;55.44;101926.13;5015488;28;20391;-80
2023/06/04 09:31:26;;;;;;;5.77;2.43;;;;;;;17.70;55.03;101924.75;4998194;28;20796;-81
2023/06/04 09:33:52;;;;;;;9.40;2.60;;;;;;;17.98;55.22;101919.53;4999387;28;20387;-81
2023/06/04 09:36:18;;;;;;;7.93;2.78;;;;;;;18.14;54.93;101931.88;5016103;28;20467;-81
2023/06/04 09:38:43;;;;;;;6.75;2.50;;;;;;;18.08;54.19;101927.28;5015707;28;20511;-79
2023/06/04 09:41:19;;;;;;;8.03;2.20;;;;;;;18.07;53.92;101931.81;5015798;28;20408;-80
2023/06/04 09:43:45;;;;;;;7.35;2.30;;;;;;;18.05;54.14;101927.66;5015853;28;20446;-80
2023/06/04 09:46:15;;;;;;;6.18;2.33;;;;;;;18.26;53.79;101930.38;5016498;28;20376;-80
2023/06/04 09:48:42;;;;;;;8.02;2.22;;;;;;;18.47;54.23;101931.38;5016151;28;20388;-80
2023/06/04 09:51:12;;;;;;;5.93;2.33;;;;;;;18.78;54.19;101932.88;5014509;28;20847;-80
2023/06/04 09:53:39;;;;;;;6.38;2.22;;;;;;;18.87;54.06;101931.72;5014694;28;20392;-80
2023/06/04 09:56:10;;;;;;;6.03;1.90;;;;;;;18.94;53.68;101932.63;5012976;28;20423;-79
2023/06/04 09:58:37;;;;;;;8.48;2.40;;;;;;;19.00;53.49;101925.66;5014707;28;20771;-81
2023/06/04 10:01:06;;;;;;;7.22;2.33;;;;;;;18.91;53.90;101928.47;5015160;28;20380;-81
2023/06/04 10:03:36;;;;;;;6.30;2.30;;;;;;;18.69;53.20;101926.81;5014204;28;20376;-80
2023/06/04 10:06:06;;;;;;;6.47;2.10;;;;;;;18.66;52.85;101919.97;5015373;28;20372;-81
2023/06/04 10:08:33;;;;;;;7.18;2.47;;;;;;;18.51;53.33;101938.00;5003929;28;20399;-82
2023/06/04 10:11:01;;;;;;;7.97;2.38;;;;;;;18.84;53.24;101930.28;4998893;28;20459;-81
2023/06/04 10:13:35;;;;;;;5.75;1.98;;;;;;;18.82;51.47;101935.03;4998728;28;20372;-82
2023/06/04 10:16:01;;;;;;;4.77;1.83;;;;;;;18.70;50.07;101933.84;5014852;28;20449;-81
2023/06/04 10:18:28;;;;;;;5.32;2.15;;;;;;;18.72;50.03;101924.56;5016236;28;20408;-81
2023/06/04 10:20:58;;;;;;;4.65;1.60;;;;;;;18.87;50.09;101926.38;5015443;28;20376;-81
2023/06/04 10:23:24;;;;;;;5.28;1.90;;;;;;;18.97;49.68;101924.16;5029962;28;20477;-80
2023/06/04 10:25:52;;;;;;;3.88;1.60;;;;;;;18.93;49.52;101927.47;5016865;28;20383;-81
2023/06/04 10:28:22;;;;;;;6.47;1.92;;;;;;;18.72;49.56;101926.44;5016131;28;20460;-80
2023/06/04 10:30:50;;;;;;;5.73;2.00;;;;;;;18.57;49.69;101934.56;5015679;28;20378;-81
2023/06/04 10:33:23;;;;;;;4.03;1.67;;;;;;;18.69;49.84;101940.25;5015630;28;20372;-83
2023/06/04 10:35:50;;;;;;;5.30;1.95;;;;;;;18.76;50.35;101937.63;5016029;28;20879;-81
2023/06/04 10:38:16;;;;;;;8.15;1.90;;;;;;;18.58;50.39;101938.09;5016850;28;20419;-81
2023/06/04 10:40:42;;;;;;;5.25;1.90;;;;;;;18.64;50.36;101940.00;5021977;28;20403;-79
2023/06/04 10:43:12;;;;;;;6.03;2.00;;;;;;;18.54;50.56;101938.47;5022875;28;20853;-79
2023/06/04 10:45:39;;;;;;;5.07;1.98;;;;;;;18.56;51.08;101938.28;5026525;28;20394;-81
2023/06/04 10:48:07;;;;;;;5.45;1.90;;;;;;;18.78;51.21;101932.88;5026794;28;20373;-79
2023/06/04 10:50:33;;;;;;;6.50;1.90;;;;;;;18.78;51.24;101932.88;5008074;28;20388;-81
2023/06/04 10:53:02;;;;;;;5.97;1.67;;;;;;;18.73;51.34;101923.56;5005902;28;20470;-80
2023/06/04 10:55:29;;;;;;;7.00;2.20;;;;;;;18.60;51.11;101942.25;5022987;28;20454;-79
2023/06/04 10:57:57;;;;;;;5.60;2.10;;;;;;;18.53;51.22;101944.88;4998482;28;20422;-80
2023/06/04 11:00:33;;;;;;;9.80;2.13;;;;;;;18.57;51.23;101939.94;5013217;28;20483;-80
2023/06/04 11:02:59;;;;;;;6.90;2.10;;;;;;;18.56;50.61;101946.31;5013137;28;20947;-81
2023/06/04 11:05:39;;;;;;;8.03;2.20;;;;;;;18.52;50.55;101937.00;5012465;28;20475;-81
2023/06/04 11:08:05;;;;;;;8.88;2.13;;;;;;;18.54;50.50;101940.31;5008990;28;20469;-80
2023/06/04 11:10:33;;;;;;;5.13;1.80;;;;;;;18.47;50.77;101936.75;4996094;28;20445;-80
2023/06/04 11:12:59;;;;;;;6.00;2.20;;;;;;;18.46;50.89;101925.19;5013130;28;20396;-80
2023/06/04 11:15:25;;;;;;;5.33;1.97;;;;;;;18.49;50.77;101932.88;5013109;28;20380;-80
2023/06/04 11:17:50;;;;;;;9.98;2.33;;;;;;;18.65;50.80;101933.59;5012835;28;20494;-80
2023/06/04 11:20:18;;;;;;;16.00;3.33;;;;;;;18.87;50.92;101939.78;5013059;28;20383;-80
2023/06/04 11:23:03;;;;;;;8.13;2.40;;;;;;;18.86;50.60;101936.28;5012932;28;20386;-80